createdAt,value
2018-04-06T00:01:01.899Z,8.40
2018-04-06T00:03:28.179Z,8.40
2018-04-06T00:05:54.770Z,8.30
2018-04-06T00:08:22.489Z,8.30
2018-04-06T00:10:50.122Z,8.20
2018-04-06T00:13:17.740Z,8.10
2018-04-06T00:15:45.034Z,8.10
2018-04-06T00:18:12.053Z,8.10
2018-04-06T00:20:39.351Z,8.10
2018-04-06T00:23:06.109Z,8.10
2018-04-06T00:25:33.651Z,7.80
2018-04-06T00:27:59.911Z,7.80
2018-04-06T00:30:27.250Z,7.50
2018-04-06T00:32:54.208Z,7.50
2018-04-06T00:35:21.854Z,7.40
2018-04-06T00:37:48.513Z,7.40
2018-04-06T00:40:16.107Z,7.30
2018-04-06T00:42:42.334Z,7.30
2018-04-06T00:45:09.668Z,7.30
2018-04-06T00:47:36.444Z,7.30
2018-04-06T00:50:02.690Z,7.20
2018-04-06T00:52:28.947Z,7.20
2018-04-06T00:54:56.681Z,7.20
2018-04-06T00:57:24.060Z,7.20
2018-04-06T00:59:50.734Z,7.20
2018-04-06T01:02:17.967Z,7.10
2018-04-06T01:04:45.503Z,7.10
2018-04-06T01:07:12.181Z,7.10
2018-04-06T01:09:38.968Z,7.10
2018-04-06T01:12:05.381Z,7.10
2018-04-06T01:14:32.493Z,6.90
2018-04-06T01:16:59.363Z,6.90
2018-04-06T01:19:26.224Z,6.90
2018-04-06T01:21:53.244Z,6.90
2018-04-06T01:24:20.468Z,6.90
2018-04-06T01:26:46.703Z,7.00
2018-04-06T01:31:45.826Z,6.90
2018-04-06T01:34:12.394Z,6.80
2018-04-06T01:36:39.789Z,6.70
2018-04-06T01:39:07.469Z,6.60
2018-04-06T01:41:33.682Z,6.60
2018-04-06T01:44:00.653Z,6.10
2018-04-06T01:46:26.900Z,6.10
2018-04-06T01:48:53.227Z,6.20
2018-04-06T01:51:19.429Z,6.10
2018-04-06T01:53:45.710Z,6.10
2018-04-06T01:56:11.960Z,6.10
2018-04-06T01:58:38.157Z,6.10
2018-04-06T02:01:05.049Z,6.10
2018-04-06T02:03:31.634Z,6.10
2018-04-06T02:05:58.683Z,6.00
2018-04-06T02:08:25.151Z,6.00
2018-04-06T02:10:52.715Z,5.90
2018-04-06T02:13:20.704Z,5.80
2018-04-06T02:15:46.890Z,5.80
2018-04-06T02:18:13.542Z,5.50
2018-04-06T02:20:40.536Z,4.80
2018-04-06T02:23:06.771Z,4.80
2018-04-06T02:25:33.518Z,4.80
2018-04-06T02:27:59.706Z,4.90
2018-04-06T02:30:26.785Z,5.00
2018-04-06T02:32:53.831Z,4.90
2018-04-06T02:35:20.525Z,4.90
2018-04-06T02:37:47.884Z,4.70
2018-04-06T02:40:15.821Z,4.80
2018-04-06T02:42:42.038Z,4.80
2018-04-06T02:45:08.908Z,4.70
2018-04-06T02:47:35.087Z,4.70
2018-04-06T02:50:01.434Z,4.70
2018-04-06T02:52:27.871Z,4.80
2018-04-06T02:54:54.068Z,4.70
2018-04-06T02:57:20.296Z,4.70
2018-04-06T02:59:46.506Z,4.70
2018-04-06T03:02:12.909Z,4.60
2018-04-06T03:04:39.742Z,4.60
2018-04-06T03:07:06.745Z,4.40
2018-04-06T03:09:33.834Z,4.50
2018-04-06T03:12:00.046Z,4.40
2018-04-06T03:14:26.262Z,4.50
2018-04-06T03:16:52.909Z,4.40
2018-04-06T03:19:19.895Z,4.40
2018-04-06T03:21:47.968Z,4.50
2018-04-06T03:24:14.935Z,4.50
2018-04-06T03:26:41.645Z,4.50
2018-04-06T03:29:09.110Z,4.50
2018-04-06T03:31:36.048Z,4.50
2018-04-06T03:34:03.506Z,4.50
2018-04-06T03:36:30.477Z,4.50
2018-04-06T03:38:56.683Z,4.40
2018-04-06T03:41:23.770Z,4.10
2018-04-06T03:43:50.165Z,4.10
2018-04-06T03:46:16.997Z,4.20
2018-04-06T03:48:43.941Z,4.10
2018-04-06T03:51:11.427Z,4.10
2018-04-06T03:53:38.824Z,4.10
2018-04-06T03:56:05.039Z,4.10
2018-04-06T03:58:32.418Z,4.20
2018-04-06T04:00:59.935Z,4.20
2018-04-06T04:03:26.509Z,4.20
2018-04-06T04:05:52.736Z,4.20
2018-04-06T04:08:19.060Z,4.30
2018-04-06T04:10:45.494Z,4.30
2018-04-06T04:13:12.311Z,4.20
2018-04-06T04:15:38.725Z,4.20
2018-04-06T04:18:05.559Z,4.20
2018-04-06T04:20:32.429Z,4.10
2018-04-06T04:22:58.835Z,4.20
2018-04-06T04:25:25.213Z,4.10
2018-04-06T04:27:51.496Z,4.10
2018-04-06T04:30:17.683Z,4.10
2018-04-06T04:32:43.894Z,4.00
2018-04-06T04:35:10.167Z,3.90
2018-04-06T04:37:36.794Z,3.90
2018-04-06T04:40:03.760Z,3.80
2018-04-06T04:42:30.130Z,3.80
2018-04-06T04:44:57.391Z,3.80
2018-04-06T04:47:24.958Z,3.80
2018-04-06T04:49:51.629Z,3.70
2018-04-06T04:52:19.771Z,3.80
2018-04-06T04:54:46.559Z,3.70
2018-04-06T04:57:13.085Z,3.80
2018-04-06T04:59:41.018Z,3.80
2018-04-06T05:02:08.633Z,3.80
2018-04-06T05:04:35.186Z,3.80
2018-04-06T05:07:02.794Z,3.70
2018-04-06T05:09:30.788Z,3.60
2018-04-06T05:11:57.010Z,3.60
2018-04-06T05:14:23.240Z,3.50
2018-04-06T05:16:49.475Z,3.50
2018-04-06T05:19:16.333Z,3.50
2018-04-06T05:21:42.607Z,3.60
2018-04-06T05:24:09.567Z,4.00
2018-04-06T05:26:37.006Z,4.20
2018-04-06T05:29:04.623Z,4.20
2018-04-06T05:31:31.993Z,4.70
2018-04-06T05:33:59.881Z,5.10
2018-04-06T05:36:27.815Z,5.50
2018-04-06T05:38:55.102Z,5.90
2018-04-06T05:41:21.286Z,5.90
2018-04-06T05:43:47.843Z,6.30
2018-04-06T05:46:15.040Z,7.10
2018-04-06T05:48:41.989Z,7.20
2018-04-06T05:51:08.312Z,7.20
2018-04-06T05:53:34.750Z,7.50
2018-04-06T05:56:01.383Z,7.70
2018-04-06T05:58:28.750Z,7.50
2018-04-06T06:00:56.393Z,7.20
2018-04-06T06:03:23.517Z,7.20
2018-04-06T06:05:50.100Z,7.30
2018-04-06T06:08:16.856Z,7.40
2018-04-06T06:10:43.536Z,7.50
2018-04-06T06:13:10.327Z,7.50
2018-04-06T06:15:37.419Z,7.60
2018-04-06T06:18:03.670Z,7.60
2018-04-06T06:20:30.654Z,7.90
2018-04-06T06:22:57.868Z,8.30
2018-04-06T06:25:25.119Z,8.50
2018-04-06T06:27:52.174Z,9.10
2018-04-06T06:30:19.099Z,9.40
2018-04-06T06:32:45.313Z,9.40
2018-04-06T06:35:11.542Z,9.30
2018-04-06T06:37:38.061Z,9.80
2018-04-06T06:40:04.894Z,10.20
2018-04-06T06:42:32.139Z,10.30
2018-04-06T06:44:58.365Z,10.40
2018-04-06T06:47:25.250Z,10.70
2018-04-06T06:49:51.494Z,11.10
2018-04-06T06:52:17.846Z,11.20
2018-04-06T06:54:44.088Z,11.70
2018-04-06T06:57:10.861Z,11.70
2018-04-06T06:59:37.457Z,11.60
2018-04-06T07:02:03.692Z,11.70
2018-04-06T07:04:30.943Z,11.60
2018-04-06T07:06:57.188Z,11.30
2018-04-06T07:09:23.570Z,11.40
2018-04-06T07:11:50.610Z,11.70
2018-04-06T07:14:18.285Z,11.60
2018-04-06T07:16:45.105Z,11.60
2018-04-06T07:19:12.698Z,11.50
2018-04-06T07:21:38.994Z,11.50
2018-04-06T07:24:06.078Z,11.90
2018-04-06T07:26:33.300Z,11.90
2018-04-06T07:29:00.818Z,13.30
2018-04-06T07:31:27.239Z,13.30
2018-04-06T07:33:53.712Z,13.30
2018-04-06T07:36:20.497Z,12.80
2018-04-06T07:38:49.728Z,12.80
2018-04-06T07:41:16.051Z,12.80
2018-04-06T07:43:43.159Z,12.70
2018-04-06T07:46:10.497Z,12.80
2018-04-06T07:48:38.189Z,12.90
2018-04-06T07:51:04.397Z,12.90
2018-04-06T07:53:31.442Z,12.80
2018-04-06T07:55:58.356Z,12.70
2018-04-06T07:58:26.307Z,13.20
2018-04-06T08:00:53.541Z,13.60
2018-04-06T08:03:20.677Z,14.10
2018-04-06T08:05:47.118Z,14.40
2018-04-06T08:08:13.496Z,14.50
2018-04-06T08:10:40.572Z,14.80
2018-04-06T08:13:08.711Z,15.20
2018-04-06T08:15:35.135Z,15.50
2018-04-06T08:18:01.624Z,15.90
2018-04-06T08:20:28.920Z,16.30
2018-04-06T08:22:55.547Z,16.50
2018-04-06T08:25:21.777Z,16.50
2018-04-06T08:27:48.173Z,16.50
2018-04-06T08:30:14.968Z,16.40
2018-04-06T08:32:41.195Z,16.50
2018-04-06T08:35:08.110Z,16.30
2018-04-06T08:37:34.427Z,16.50
2018-04-06T08:40:01.167Z,16.70
2018-04-06T08:42:28.026Z,16.70
2018-04-06T08:44:54.906Z,15.80
2018-04-06T08:47:23.048Z,15.10
2018-04-06T08:49:50.029Z,13.90
2018-04-06T08:52:17.173Z,13.90
2018-04-06T08:54:44.422Z,13.90
2018-04-06T08:57:11.958Z,13.80
2018-04-06T08:59:39.113Z,14.20
2018-04-06T09:02:05.877Z,14.10
2018-04-06T09:04:34.076Z,13.40
2018-04-06T09:07:00.962Z,13.40
2018-04-06T09:09:27.529Z,13.40
2018-04-06T09:11:56.461Z,13.80
2018-04-06T09:14:22.808Z,13.80
2018-04-06T09:16:49.663Z,14.10
2018-04-06T09:19:16.514Z,14.30
2018-04-06T09:21:44.022Z,14.60
2018-04-06T09:24:11.373Z,13.70
2018-04-06T09:26:38.184Z,13.60
2018-04-06T09:29:04.517Z,13.50
2018-04-06T09:31:31.464Z,13.90
2018-04-06T09:33:58.797Z,13.80
2018-04-06T09:36:25.889Z,14.30
2018-04-06T09:38:52.238Z,14.20
2018-04-06T09:41:19.065Z,14.40
2018-04-06T09:43:46.882Z,14.30
2018-04-06T09:46:13.363Z,14.70
2018-04-06T09:48:39.945Z,14.40
2018-04-06T09:51:06.201Z,14.70
2018-04-06T09:53:33.199Z,15.30
2018-04-06T09:56:00.202Z,15.70
2018-04-06T09:58:27.219Z,16.00
2018-04-06T10:00:58.907Z,16.00
2018-04-06T10:03:26.479Z,16.10
2018-04-06T10:05:53.331Z,16.10
2018-04-06T10:08:19.587Z,15.50
2018-04-06T10:10:46.078Z,15.60
2018-04-06T10:13:13.217Z,15.50
2018-04-06T10:15:40.220Z,15.60
2018-04-06T10:18:07.013Z,15.60
2018-04-06T10:20:33.955Z,15.60
2018-04-06T10:23:01.864Z,15.90
2018-04-06T10:25:28.580Z,15.90
2018-04-06T10:27:55.385Z,16.30
2018-04-06T10:30:21.909Z,16.70
2018-04-06T10:32:49.659Z,17.00
2018-04-06T10:35:15.959Z,17.00
2018-04-06T10:37:42.705Z,17.30
2018-04-06T10:40:10.914Z,17.20
2018-04-06T10:42:38.386Z,15.90
2018-04-06T10:45:05.546Z,16.30
2018-04-06T10:47:32.511Z,16.50
2018-04-06T10:50:00.193Z,16.50
2018-04-06T10:52:26.426Z,16.20
2018-04-06T10:54:53.178Z,15.70
2018-04-06T10:57:20.187Z,15.10
2018-04-06T10:59:46.786Z,15.10
2018-04-06T11:02:12.974Z,15.20
2018-04-06T11:04:40.121Z,15.20
2018-04-06T11:07:06.378Z,15.60
2018-04-06T11:09:32.986Z,15.70
2018-04-06T11:12:00.699Z,16.10
2018-04-06T11:14:27.923Z,16.20
2018-04-06T11:16:56.101Z,15.80
2018-04-06T11:19:23.615Z,15.80
2018-04-06T11:21:49.837Z,15.70
2018-04-06T11:24:16.631Z,16.10
2018-04-06T11:26:43.512Z,16.40
2018-04-06T11:29:10.935Z,16.50
2018-04-06T11:31:37.202Z,16.10
2018-04-06T11:34:03.427Z,15.80
2018-04-06T11:36:29.765Z,15.60
2018-04-06T11:38:56.556Z,15.60
2018-04-06T11:41:23.157Z,15.60
2018-04-06T11:43:50.311Z,16.10
2018-04-06T11:46:16.978Z,16.10
2018-04-06T11:48:44.255Z,15.70
2018-04-06T11:51:11.859Z,15.30
2018-04-06T11:53:38.274Z,15.30
2018-04-06T11:56:04.474Z,15.60
2018-04-06T11:58:31.474Z,16.00
2018-04-06T12:00:57.712Z,16.00
2018-04-06T12:03:24.243Z,15.90
2018-04-06T12:05:52.201Z,16.20
2018-04-06T12:08:19.607Z,16.10
2018-04-06T12:10:47.516Z,16.10
2018-04-06T12:13:13.996Z,16.10
2018-04-06T12:15:41.200Z,15.80
2018-04-06T12:18:07.774Z,15.90
2018-04-06T12:20:34.318Z,15.90
2018-04-06T12:23:00.561Z,15.90
2018-04-06T12:25:28.548Z,16.00
2018-04-06T12:27:55.370Z,15.90
2018-04-06T12:30:22.090Z,15.70
2018-04-06T12:35:48.917Z,15.70
2018-04-06T12:38:16.334Z,15.80
2018-04-06T12:40:42.810Z,15.60
2018-04-06T12:43:09.020Z,15.70
2018-04-06T12:45:37.478Z,15.50
2018-04-06T12:48:03.924Z,15.50
2018-04-06T12:50:30.814Z,15.60
2018-04-06T12:52:57.260Z,15.90
2018-04-06T12:55:25.042Z,15.60
2018-04-06T12:57:52.145Z,15.50
2018-04-06T13:00:19.198Z,15.50
2018-04-06T13:02:45.990Z,15.60
2018-04-06T13:05:25.891Z,15.50
2018-04-06T13:07:52.278Z,15.40
2018-04-06T13:10:18.650Z,15.40
2018-04-06T13:12:53.922Z,15.60
2018-04-06T13:15:21.467Z,15.90
2018-04-06T13:17:49.119Z,15.90
2018-04-06T13:20:15.308Z,16.20
2018-04-06T13:22:41.511Z,16.30
2018-04-06T13:25:09.814Z,16.10
2018-04-06T13:27:37.182Z,16.10
2018-04-06T13:30:04.351Z,16.10
2018-04-06T13:32:30.721Z,16.10
2018-04-06T13:34:57.560Z,16.10
2018-04-06T13:37:25.049Z,15.90
2018-04-06T13:39:51.267Z,15.90
2018-04-06T13:42:18.847Z,15.90
2018-04-06T13:44:45.294Z,16.00
2018-04-06T13:47:11.562Z,16.20
2018-04-06T13:49:38.882Z,16.20
2018-04-06T13:52:05.972Z,16.10
2018-04-06T13:54:33.541Z,16.30
2018-04-06T13:57:00.869Z,16.00
2018-04-06T13:59:27.472Z,16.00
2018-04-06T14:01:53.719Z,15.80
2018-04-06T14:04:20.438Z,15.90
2018-04-06T14:06:48.507Z,15.70
2018-04-06T14:09:15.225Z,16.00
2018-04-06T14:11:42.566Z,16.50
2018-04-06T14:14:10.747Z,16.40
2018-04-06T14:16:37.311Z,16.50
2018-04-06T14:19:04.178Z,16.40
2018-04-06T14:21:31.837Z,16.40
2018-04-06T14:23:59.074Z,16.30
2018-04-06T14:26:26.013Z,16.30
2018-04-06T14:28:53.238Z,16.40
2018-04-06T14:31:19.686Z,16.50
2018-04-06T14:33:46.717Z,16.50
2018-04-06T14:36:13.092Z,16.50
2018-04-06T14:38:39.649Z,16.30
2018-04-06T14:41:07.197Z,15.80
2018-04-06T14:43:34.858Z,15.80
2018-04-06T14:46:01.813Z,15.80
2018-04-06T14:48:30.105Z,15.70
2018-04-06T14:50:56.334Z,15.60
2018-04-06T14:53:22.600Z,15.70
2018-04-06T14:55:49.410Z,16.00
2018-04-06T14:58:16.568Z,16.10
2018-04-06T15:00:42.786Z,15.70
2018-04-06T15:03:09.462Z,15.80
2018-04-06T15:05:35.886Z,15.70
2018-04-06T15:08:02.961Z,15.80
2018-04-06T15:10:29.180Z,15.80
2018-04-06T15:12:55.388Z,16.00
2018-04-06T15:15:21.591Z,16.10
2018-04-06T15:17:47.828Z,16.10
2018-04-06T15:20:14.019Z,15.90
2018-04-06T15:22:41.624Z,16.10
2018-04-06T15:25:08.276Z,16.10
2018-04-06T15:27:35.551Z,16.20
2018-04-06T15:30:02.603Z,16.00
2018-04-06T15:32:34.355Z,16.00
2018-04-06T15:35:04.218Z,16.00
2018-04-06T15:37:32.498Z,16.00
2018-04-06T15:40:00.405Z,16.00
2018-04-06T15:42:27.811Z,15.90
2018-04-06T15:44:55.705Z,15.80
2018-04-06T15:47:24.429Z,15.90
2018-04-06T15:49:51.175Z,15.80
2018-04-06T15:52:17.436Z,15.80
2018-04-06T15:54:44.218Z,15.70
2018-04-06T15:57:12.346Z,15.30
2018-04-06T15:59:38.648Z,15.30
2018-04-06T16:02:06.365Z,15.10
2018-04-06T16:04:33.107Z,15.10
2018-04-06T16:06:59.846Z,15.10
2018-04-06T16:09:27.250Z,15.20
2018-04-06T16:11:55.144Z,15.20
2018-04-06T16:14:21.454Z,15.20
2018-04-06T16:16:47.818Z,15.20
2018-04-06T16:19:14.185Z,15.10
2018-04-06T16:21:41.190Z,15.00
2018-04-06T16:24:07.607Z,15.00
2018-04-06T16:26:33.814Z,15.10
2018-04-06T16:29:01.245Z,15.30
2018-04-06T16:31:28.474Z,15.20
2018-04-06T16:33:55.118Z,15.10
2018-04-06T16:46:07.290Z,15.00
2018-04-06T16:48:35.858Z,14.80
2018-04-06T16:51:02.345Z,14.80
2018-04-06T16:53:28.596Z,14.80
2018-04-06T16:55:55.250Z,14.80
2018-04-06T16:58:22.271Z,14.70
2018-04-06T17:00:48.534Z,14.70
2018-04-06T17:03:14.889Z,14.60
2018-04-06T17:05:42.200Z,14.60
2018-04-06T17:08:08.838Z,14.50
2018-04-06T17:10:37.123Z,14.40
2018-04-06T17:13:04.140Z,14.40
2018-04-06T17:15:30.371Z,14.40
2018-04-06T17:17:56.772Z,14.30
2018-04-06T17:20:23.039Z,14.20
2018-04-06T17:22:49.923Z,14.10
2018-04-06T17:25:16.155Z,14.10
2018-04-06T17:27:42.371Z,14.10
2018-04-06T17:30:08.990Z,14.00
2018-04-06T17:32:36.068Z,14.00
2018-04-06T17:35:02.290Z,14.00
2018-04-06T17:37:29.242Z,13.80
2018-04-06T17:39:56.875Z,13.80
2018-04-06T17:42:23.093Z,13.80
2018-04-06T17:44:49.375Z,13.70
2018-04-06T17:47:16.676Z,13.50
2018-04-06T17:49:44.339Z,13.40
2018-04-06T17:52:11.684Z,13.40
2018-04-06T17:54:38.188Z,13.20
2018-04-06T17:57:05.369Z,13.10
2018-04-06T17:59:33.482Z,13.10
2018-04-06T18:01:59.687Z,13.10
2018-04-06T18:04:25.917Z,13.10
2018-04-06T18:06:52.580Z,13.00
2018-04-06T18:09:19.698Z,13.10
2018-04-06T18:11:47.876Z,12.90
2018-04-06T18:14:14.115Z,12.90
2018-04-06T18:16:41.267Z,12.50
2018-04-06T18:19:08.124Z,12.50
2018-04-06T18:21:34.654Z,12.50
2018-04-06T18:24:02.945Z,12.50
2018-04-06T18:26:30.186Z,12.50
2018-04-06T18:28:56.720Z,12.40
2018-04-06T18:31:24.543Z,12.30
2018-04-06T18:33:50.807Z,12.30
2018-04-06T18:36:17.392Z,12.20
2018-04-06T18:38:45.079Z,12.20
2018-04-06T18:41:12.855Z,12.10
2018-04-06T18:43:39.931Z,12.10
2018-04-06T18:46:06.431Z,12.10
2018-04-06T18:48:33.357Z,12.10
2018-04-06T18:50:59.771Z,12.00
2018-04-06T18:53:26.032Z,11.90
2018-04-06T18:55:52.460Z,11.80
2018-04-06T18:58:19.529Z,11.80
2018-04-06T19:00:47.320Z,11.70
2018-04-06T19:03:14.363Z,11.70
2018-04-06T19:05:41.062Z,11.60
2018-04-06T19:08:07.571Z,11.60
2018-04-06T19:10:35.277Z,11.50
2018-04-06T19:13:01.643Z,11.50
2018-04-06T19:15:29.245Z,11.40
2018-04-06T19:17:56.013Z,11.40
2018-04-06T19:20:22.921Z,11.50
2018-04-06T19:22:50.205Z,11.30
2018-04-06T19:25:16.623Z,11.20
2018-04-06T19:27:43.838Z,11.20
2018-04-06T19:30:11.378Z,11.30
2018-04-06T19:32:38.663Z,11.30
2018-04-06T19:35:06.375Z,11.10
2018-04-06T19:37:33.025Z,11.00
2018-04-06T19:39:59.991Z,11.00
2018-04-06T19:42:26.904Z,11.00
2018-04-06T19:44:53.124Z,11.10
2018-04-06T19:47:19.433Z,11.20
2018-04-06T19:49:45.925Z,11.20
2018-04-06T19:52:14.427Z,11.10
2018-04-06T19:54:40.859Z,11.10
2018-04-06T19:57:08.818Z,11.00
2018-04-06T19:59:35.882Z,10.90
2018-04-06T20:02:02.647Z,10.90
2018-04-06T20:04:28.908Z,10.90
2018-04-06T20:06:57.114Z,10.80
2018-04-06T20:09:24.649Z,10.90
2018-04-06T20:11:51.492Z,10.90
2018-04-06T20:14:18.485Z,10.80
2018-04-06T20:16:44.707Z,10.80
2018-04-06T20:19:11.518Z,10.80
2018-04-06T20:21:38.361Z,10.80
2018-04-06T20:24:05.399Z,10.80
2018-04-06T20:26:32.893Z,10.80
2018-04-06T20:29:00.136Z,10.80
2018-04-06T20:31:27.880Z,10.70
2018-04-06T20:33:54.103Z,10.70
2018-04-06T20:36:20.486Z,10.70
2018-04-06T20:38:48.180Z,10.70
2018-04-06T20:41:15.262Z,10.70
2018-04-06T20:43:41.537Z,10.70
2018-04-06T20:46:08.787Z,10.70
2018-04-06T20:48:35.853Z,10.60
2018-04-06T20:51:02.338Z,10.60
2018-04-06T20:53:28.846Z,10.60
2018-04-06T20:55:56.251Z,10.60
2018-04-06T20:58:23.043Z,10.60
2018-04-06T21:00:49.302Z,10.60
2018-04-06T21:03:16.984Z,10.60
2018-04-06T21:05:44.196Z,10.60
2018-04-06T21:08:10.747Z,10.50
2018-04-06T21:10:37.343Z,10.60
2018-04-06T21:13:04.625Z,10.60
2018-04-06T21:15:31.212Z,10.60
2018-04-06T21:17:58.768Z,10.50
2018-04-06T21:20:26.131Z,10.40
2018-04-06T21:22:53.513Z,10.40
2018-04-06T21:25:20.490Z,10.40
2018-04-06T21:27:48.123Z,10.40
2018-04-06T21:30:14.385Z,10.40
2018-04-06T21:32:40.965Z,10.40
2018-04-06T21:35:07.950Z,10.10
2018-04-06T21:37:34.294Z,10.00
2018-04-06T21:40:01.544Z,10.00
2018-04-06T21:42:29.495Z,9.80
2018-04-06T21:44:55.801Z,9.80
2018-04-06T21:47:22.769Z,9.70
2018-04-06T21:49:49.039Z,9.70
2018-04-06T21:52:15.822Z,9.70
2018-04-06T21:54:42.048Z,9.60
2018-04-06T21:57:09.819Z,9.40
2018-04-06T21:59:38.501Z,9.10
2018-04-06T22:02:05.031Z,9.10
2018-04-06T22:04:32.476Z,8.90
2018-04-06T22:07:00.321Z,8.80
2018-04-06T22:09:28.198Z,8.70
2018-04-06T22:11:55.709Z,8.60
2018-04-06T22:14:23.223Z,8.60
2018-04-06T22:16:51.069Z,8.50
2018-04-06T22:19:19.869Z,8.50
2018-04-06T22:21:46.129Z,8.40
2018-04-06T22:24:13.393Z,8.40
2018-04-06T22:26:39.605Z,8.30
2018-04-06T22:29:05.818Z,8.20
2018-04-06T22:31:32.847Z,8.10
2018-04-06T22:33:59.167Z,8.10
2018-04-06T22:36:25.656Z,8.00
2018-04-06T22:38:52.053Z,7.90
2018-04-06T22:41:19.469Z,7.80
2018-04-06T22:43:46.469Z,7.80
2018-04-06T22:46:13.662Z,7.70
2018-04-06T22:48:41.188Z,7.70
2018-04-06T22:51:08.263Z,7.60
2018-04-06T22:53:34.506Z,7.60
2018-04-06T22:56:01.721Z,7.60
2018-04-06T22:58:28.334Z,7.60
2018-04-06T23:00:55.476Z,7.50
2018-04-06T23:03:22.479Z,7.50
2018-04-06T23:05:49.338Z,7.40
2018-04-06T23:08:15.868Z,7.40
2018-04-06T23:10:43.365Z,7.60
2018-04-06T23:13:10.682Z,7.60
2018-04-06T23:15:37.665Z,7.50
2018-04-06T23:18:04.786Z,7.40
2018-04-06T23:20:31.774Z,7.40
2018-04-06T23:22:58.508Z,7.40
2018-04-06T23:25:25.131Z,7.50
2018-04-06T23:27:52.473Z,7.60
2018-04-06T23:30:19.754Z,7.50
2018-04-06T23:32:46.999Z,7.50
2018-04-06T23:35:14.339Z,7.60
2018-04-06T23:37:41.303Z,7.70
2018-04-06T23:40:08.053Z,7.60
2018-04-06T23:42:34.845Z,7.70
2018-04-06T23:45:01.040Z,7.60
2018-04-06T23:47:27.627Z,7.60
2018-04-06T23:49:54.587Z,7.50
2018-04-06T23:52:22.070Z,7.40
2018-04-06T23:54:49.436Z,7.40
2018-04-06T23:57:16.304Z,7.40
2018-04-06T23:59:42.681Z,7.40
